createdAt,value
2022-10-08T00:00:03.867Z,2.70
2022-10-08T00:02:39.382Z,2.67
2022-10-08T00:05:07.952Z,2.87
2022-10-08T00:07:35.716Z,3.17
2022-10-08T00:10:06.230Z,3.50
2022-10-08T00:12:33.949Z,3.20
2022-10-08T00:15:03.389Z,3.00
2022-10-08T00:17:31.126Z,2.58
2022-10-08T00:19:58.885Z,2.80
2022-10-08T00:22:26.631Z,2.70
2022-10-08T00:24:56.546Z,2.53
2022-10-08T00:27:24.390Z,2.70
2022-10-08T00:29:52.882Z,3.15
2022-10-08T00:32:21.977Z,3.03
2022-10-08T00:34:49.665Z,2.78
2022-10-08T00:37:17.413Z,3.17
2022-10-08T00:39:45.431Z,3.30
2022-10-08T00:42:13.637Z,2.63
2022-10-08T00:44:52.453Z,3.17
2022-10-08T00:47:26.506Z,2.80
2022-10-08T00:49:55.968Z,2.55
2022-10-08T00:52:24.062Z,2.90
2022-10-08T00:54:51.873Z,2.67
2022-10-08T00:57:20.217Z,2.60
2022-10-08T00:59:48.005Z,2.33
2022-10-08T01:02:16.000Z,2.50
2022-10-08T01:04:45.182Z,2.70
2022-10-08T01:07:17.402Z,2.28
2022-10-08T01:09:50.128Z,2.47
2022-10-08T01:12:24.463Z,2.75
2022-10-08T01:14:56.790Z,2.72
2022-10-08T01:17:28.975Z,2.77
2022-10-08T01:20:27.377Z,2.35
2022-10-08T01:23:10.260Z,2.55
2022-10-08T01:25:41.732Z,2.80
2022-10-08T01:28:15.785Z,2.50
2022-10-08T01:30:48.386Z,2.45
2022-10-08T01:33:20.456Z,3.17
2022-10-08T01:35:53.864Z,3.00
2022-10-08T01:38:23.646Z,2.70
2022-10-08T01:40:52.909Z,2.30
2022-10-08T01:43:23.698Z,2.23
2022-10-08T01:45:54.279Z,3.07
2022-10-08T01:48:24.724Z,2.67
2022-10-08T01:50:54.948Z,2.60
2022-10-08T01:53:25.696Z,2.60
2022-10-08T01:55:54.641Z,2.55
2022-10-08T01:58:28.986Z,2.37
2022-10-08T02:00:58.309Z,2.80
2022-10-08T02:03:26.185Z,2.47
2022-10-08T02:05:55.875Z,2.63
2022-10-08T02:08:24.478Z,2.80
2022-10-08T02:10:52.965Z,3.43
2022-10-08T02:13:21.081Z,2.43
2022-10-08T02:15:55.170Z,2.80
2022-10-08T02:18:31.049Z,2.65
2022-10-08T02:21:00.953Z,2.78
2022-10-08T02:23:31.586Z,2.33
2022-10-08T02:26:00.583Z,2.70
2022-10-08T02:28:32.915Z,2.00
2022-10-08T02:31:07.643Z,2.78
2022-10-08T02:33:39.294Z,2.95
2022-10-08T02:36:08.802Z,2.15
2022-10-08T02:38:40.119Z,2.95
2022-10-08T02:41:09.253Z,2.15
2022-10-08T02:43:40.113Z,2.42
2022-10-08T02:46:13.454Z,2.47
2022-10-08T02:48:44.922Z,2.70
2022-10-08T02:51:15.596Z,2.10
2022-10-08T02:53:43.941Z,2.40
2022-10-08T02:56:16.538Z,2.72
2022-10-08T02:58:45.827Z,2.60
2022-10-08T03:01:18.658Z,2.45
2022-10-08T03:03:49.945Z,2.20
2022-10-08T03:06:18.460Z,2.47
2022-10-08T03:08:49.093Z,2.10
2022-10-08T03:11:17.354Z,2.28
2022-10-08T03:13:48.042Z,2.50
2022-10-08T03:16:22.529Z,1.90
2022-10-08T03:18:52.138Z,3.03
2022-10-08T03:21:20.070Z,2.22
2022-10-08T03:23:48.058Z,2.42
2022-10-08T03:26:17.950Z,2.03
2022-10-08T03:28:46.055Z,2.60
2022-10-08T03:31:13.914Z,2.55
2022-10-08T03:33:43.084Z,2.30
2022-10-08T03:36:10.894Z,2.47
2022-10-08T03:38:38.660Z,2.13
2022-10-08T03:41:06.602Z,2.40
2022-10-08T03:43:35.029Z,2.40
2022-10-08T03:46:03.426Z,2.45
2022-10-08T03:48:31.432Z,2.75
2022-10-08T03:51:02.588Z,2.45
2022-10-08T03:53:33.308Z,2.42
2022-10-08T03:56:02.293Z,2.38
2022-10-08T03:58:30.217Z,2.65
2022-10-08T04:00:58.846Z,2.50
2022-10-08T04:03:27.055Z,2.97
2022-10-08T04:05:54.837Z,2.90
2022-10-08T04:08:24.221Z,2.80
2022-10-08T04:10:52.275Z,2.85
2022-10-08T04:13:20.397Z,3.10
2022-10-08T04:15:49.190Z,3.15
2022-10-08T04:18:17.450Z,2.70
2022-10-08T04:20:45.385Z,3.40
2022-10-08T04:23:13.254Z,3.00
2022-10-08T04:25:50.012Z,3.45
2022-10-08T04:28:17.842Z,3.85
2022-10-08T04:30:55.751Z,3.80
2022-10-08T04:33:23.698Z,4.65
2022-10-08T04:35:54.166Z,4.93
2022-10-08T04:38:24.428Z,5.53
2022-10-08T04:41:03.915Z,5.28
2022-10-08T04:43:31.737Z,5.57
2022-10-08T04:45:59.562Z,5.68
2022-10-08T04:48:27.306Z,5.60
2022-10-08T04:50:56.562Z,5.82
2022-10-08T04:53:25.612Z,6.60
2022-10-08T04:55:53.598Z,6.68
2022-10-08T04:58:23.569Z,6.63
2022-10-08T05:00:51.513Z,6.53
2022-10-08T05:03:19.272Z,6.13
2022-10-08T05:05:47.598Z,6.05
2022-10-08T05:08:15.420Z,6.53
2022-10-08T05:10:48.963Z,6.32
2022-10-08T05:13:16.814Z,7.10
2022-10-08T05:15:46.133Z,6.68
2022-10-08T05:18:13.928Z,7.28
2022-10-08T05:20:41.624Z,6.45
2022-10-08T05:23:09.339Z,6.97
2022-10-08T05:25:37.091Z,6.75
2022-10-08T05:28:05.515Z,6.93
2022-10-08T05:30:33.233Z,6.90
2022-10-08T05:33:02.311Z,7.57
2022-10-08T05:35:30.051Z,7.18
2022-10-08T05:37:58.301Z,7.00
2022-10-08T05:40:26.042Z,7.43
2022-10-08T05:42:53.947Z,6.82
2022-10-08T05:45:21.661Z,6.53
2022-10-08T05:47:49.545Z,6.97
2022-10-08T05:50:18.745Z,6.63
2022-10-08T05:52:46.735Z,6.57
2022-10-08T05:55:14.604Z,6.80
2022-10-08T05:57:42.306Z,7.70
2022-10-08T06:00:11.621Z,7.53
2022-10-08T06:02:39.360Z,8.35
2022-10-08T06:05:07.799Z,7.40
2022-10-08T06:07:36.979Z,7.85
2022-10-08T06:10:05.345Z,8.27
2022-10-08T06:12:33.105Z,8.20
2022-10-08T06:15:00.861Z,8.40
2022-10-08T06:17:28.638Z,8.27
2022-10-08T06:19:56.371Z,8.67
2022-10-08T06:22:24.103Z,9.27
2022-10-08T06:24:53.205Z,8.05
2022-10-08T06:27:20.949Z,7.50
2022-10-08T06:29:48.693Z,8.02
2022-10-08T06:32:16.408Z,8.10
2022-10-08T06:34:44.152Z,7.63
2022-10-08T06:37:11.869Z,7.57
2022-10-08T06:39:39.690Z,6.55
2022-10-08T06:42:08.876Z,6.30
2022-10-08T06:44:38.527Z,7.75
2022-10-08T06:47:06.365Z,6.53
2022-10-08T06:49:34.248Z,6.45
2022-10-08T06:52:01.946Z,6.60
2022-10-08T06:54:29.730Z,5.82
2022-10-08T06:56:57.466Z,11.48
2022-10-08T06:59:26.574Z,5.45
2022-10-08T07:01:54.322Z,4.57
2022-10-08T07:04:22.297Z,5.28
2022-10-08T07:06:50.109Z,4.85
2022-10-08T07:09:17.856Z,4.88
2022-10-08T07:11:45.573Z,5.22
2022-10-08T07:14:13.492Z,5.15
2022-10-08T07:16:42.675Z,5.10
2022-10-08T07:19:10.541Z,4.95
2022-10-08T07:21:38.273Z,5.70
2022-10-08T07:24:06.326Z,5.60
2022-10-08T07:26:35.654Z,5.13
2022-10-08T07:29:05.730Z,6.25
2022-10-08T07:31:35.425Z,7.15
2022-10-08T07:34:06.295Z,6.05
2022-10-08T07:36:34.635Z,6.70
2022-10-08T07:39:04.020Z,7.15
2022-10-08T07:41:32.017Z,7.38
2022-10-08T07:44:01.382Z,7.00
2022-10-08T07:46:29.823Z,7.88
2022-10-08T07:48:59.155Z,7.65
2022-10-08T07:51:29.863Z,7.75
2022-10-08T07:54:02.341Z,7.32
2022-10-08T07:56:30.950Z,8.43
2022-10-08T07:58:59.734Z,8.07
2022-10-08T08:01:29.773Z,9.38
2022-10-08T08:03:59.353Z,9.77
2022-10-08T08:06:29.576Z,8.75
2022-10-08T08:08:57.871Z,10.48
2022-10-08T08:11:25.961Z,10.45
2022-10-08T08:13:53.950Z,10.32
2022-10-08T08:16:25.292Z,10.30
2022-10-08T08:18:55.518Z,11.07
2022-10-08T08:21:25.567Z,10.63
2022-10-08T08:23:56.468Z,10.32
2022-10-08T08:26:25.749Z,11.15
2022-10-08T08:28:54.550Z,11.43
2022-10-08T08:31:23.911Z,10.93
2022-10-08T08:33:53.850Z,11.25
2022-10-08T08:36:25.207Z,11.88
2022-10-08T08:38:54.434Z,10.82
2022-10-08T08:41:34.440Z,11.75
2022-10-08T08:44:04.667Z,12.65
2022-10-08T08:46:36.548Z,11.82
2022-10-08T08:49:12.612Z,11.85
2022-10-08T08:51:40.347Z,11.73
2022-10-08T08:54:10.011Z,12.10
2022-10-08T08:56:37.722Z,13.18
2022-10-08T08:59:19.127Z,12.48
2022-10-08T09:01:47.768Z,12.80
2022-10-08T09:04:22.857Z,11.85
2022-10-08T09:06:52.604Z,13.27
2022-10-08T09:09:26.812Z,12.55
2022-10-08T09:11:55.509Z,12.57
2022-10-08T09:14:32.299Z,12.90
2022-10-08T09:17:02.032Z,12.73
2022-10-08T09:19:30.141Z,12.07
2022-10-08T09:21:57.895Z,12.10
2022-10-08T09:24:29.685Z,12.15
2022-10-08T09:26:57.646Z,11.68
2022-10-08T09:29:33.393Z,11.63
2022-10-08T09:32:01.227Z,11.07
2022-10-08T09:34:28.979Z,10.70
2022-10-08T09:37:05.189Z,10.77
2022-10-08T09:39:35.927Z,10.82
2022-10-08T09:42:17.196Z,12.07
2022-10-08T09:44:45.963Z,11.48
2022-10-08T09:47:15.071Z,10.23
2022-10-08T09:49:42.962Z,10.48
2022-10-08T09:52:17.458Z,9.27
2022-10-08T09:54:49.593Z,9.75
2022-10-08T09:57:18.630Z,9.52
2022-10-08T09:59:51.870Z,9.18
2022-10-08T10:02:33.914Z,10.50
2022-10-08T10:05:03.911Z,10.00
2022-10-08T10:07:40.480Z,7.57
2022-10-08T10:10:19.626Z,7.15
2022-10-08T10:12:50.355Z,8.23
2022-10-08T10:15:21.210Z,7.30
2022-10-08T10:17:51.577Z,7.10
2022-10-08T10:20:23.671Z,10.20
2022-10-08T10:22:55.178Z,5.75
2022-10-08T10:25:31.556Z,6.20
2022-10-08T10:28:01.899Z,4.90
2022-10-08T10:30:30.262Z,5.97
2022-10-08T10:33:03.219Z,6.05
2022-10-08T10:35:32.758Z,3.28
2022-10-08T10:38:06.846Z,3.75
2022-10-08T10:40:41.306Z,5.22
2022-10-08T10:43:20.145Z,3.30
2022-10-08T10:45:50.444Z,3.25
2022-10-08T10:48:18.285Z,3.10
2022-10-08T10:51:01.911Z,3.50
2022-10-08T10:53:36.356Z,2.90
2022-10-08T10:56:11.729Z,2.80
2022-10-08T10:58:54.619Z,2.90
2022-10-08T11:01:30.103Z,3.42
2022-10-08T11:04:04.339Z,2.97
2022-10-08T11:06:55.536Z,3.00
2022-10-08T11:09:31.194Z,2.92
2022-10-08T11:12:03.233Z,3.95
2022-10-08T11:14:44.654Z,3.45
2022-10-08T11:17:27.375Z,3.35
2022-10-08T11:20:02.538Z,4.03
2022-10-08T11:22:34.199Z,3.80
2022-10-08T11:25:25.276Z,2.75
2022-10-08T11:28:06.155Z,3.25
2022-10-08T11:30:39.441Z,3.10
2022-10-08T11:33:07.753Z,3.05
2022-10-08T11:35:39.646Z,2.63
2022-10-08T11:38:10.697Z,2.65
2022-10-08T11:40:41.414Z,3.20
2022-10-08T11:43:14.330Z,2.00
2022-10-08T11:45:45.905Z,2.13
2022-10-08T11:48:33.685Z,1.60
2022-10-08T11:51:28.507Z,1.88
2022-10-08T11:54:15.661Z,1.25
2022-10-08T11:56:45.880Z,1.52
2022-10-08T11:59:36.969Z,1.23
2022-10-08T12:02:06.888Z,1.17
2022-10-08T12:04:36.301Z,1.25
2022-10-08T12:07:09.308Z,1.40
2022-10-08T12:10:22.809Z,1.50
2022-10-08T12:13:01.946Z,1.50
2022-10-08T12:16:09.544Z,1.50
2022-10-08T12:18:47.844Z,1.35
2022-10-08T12:21:49.080Z,1.55
2022-10-08T12:24:55.538Z,1.00
2022-10-08T12:27:34.935Z,1.73
2022-10-08T12:30:06.193Z,1.67
2022-10-08T12:32:35.386Z,1.35
2022-10-08T12:35:04.748Z,0.90
2022-10-08T12:37:43.100Z,1.33
2022-10-08T12:40:18.861Z,1.10
2022-10-08T12:42:47.494Z,1.30
2022-10-08T12:45:20.948Z,1.02
2022-10-08T12:47:52.490Z,1.20
2022-10-08T12:50:32.700Z,1.23
2022-10-08T12:53:01.059Z,0.80
2022-10-08T12:55:29.055Z,1.08
2022-10-08T12:57:56.926Z,0.90
2022-10-08T13:00:26.637Z,0.90
2022-10-08T13:03:01.812Z,1.00
2022-10-08T13:05:32.947Z,1.17
2022-10-08T13:08:19.026Z,1.17
2022-10-08T13:10:47.083Z,0.90
2022-10-08T13:13:33.604Z,0.85
2022-10-08T13:16:02.447Z,1.17
2022-10-08T13:18:31.308Z,1.23
2022-10-08T13:21:02.201Z,6.47
2022-10-08T13:23:35.715Z,1.27
2022-10-08T13:26:03.671Z,1.02
2022-10-08T13:28:59.449Z,0.93
2022-10-08T13:31:23.503Z,1.13
2022-10-08T13:33:51.428Z,0.95
2022-10-08T13:36:22.965Z,1.15
2022-10-08T13:38:50.777Z,0.93
2022-10-08T13:41:23.455Z,1.30
2022-10-08T13:43:59.278Z,1.10
2022-10-08T13:46:27.415Z,1.10
2022-10-08T13:48:55.217Z,1.30
2022-10-08T13:51:24.315Z,1.10
2022-10-08T13:53:56.833Z,1.17
2022-10-08T13:56:24.905Z,1.48
2022-10-08T13:58:52.663Z,1.33
2022-10-08T14:01:21.328Z,1.30
2022-10-08T14:03:49.197Z,1.45
2022-10-08T14:06:16.982Z,1.45
2022-10-08T14:08:46.089Z,3.63
2022-10-08T14:11:17.594Z,1.60
2022-10-08T14:13:45.423Z,1.40
2022-10-08T14:16:14.113Z,1.70
2022-10-08T14:18:41.918Z,1.30
2022-10-08T14:21:11.517Z,1.30
2022-10-08T14:23:39.228Z,1.33
2022-10-08T14:26:11.432Z,1.17
2022-10-08T14:28:39.374Z,1.52
2022-10-08T14:31:07.561Z,1.58
2022-10-08T14:33:35.369Z,1.48
2022-10-08T14:36:15.768Z,1.30
2022-10-08T14:38:43.542Z,1.23
2022-10-08T14:41:13.798Z,1.30
2022-10-08T14:43:41.589Z,1.20
2022-10-08T14:46:09.518Z,0.90
2022-10-08T14:48:39.128Z,1.40
2022-10-08T14:51:07.378Z,1.30
2022-10-08T14:53:35.136Z,1.63
2022-10-08T14:56:12.168Z,1.17
2022-10-08T14:58:42.738Z,1.13
2022-10-08T15:01:10.632Z,1.23
2022-10-08T15:03:38.387Z,1.15
2022-10-08T15:06:06.524Z,4.22
2022-10-08T15:08:34.918Z,1.70
2022-10-08T15:11:04.142Z,1.13
2022-10-08T15:13:31.878Z,1.35
2022-10-08T15:16:01.122Z,1.40
2022-10-08T15:18:31.021Z,1.98
2022-10-08T15:21:01.026Z,1.17
2022-10-08T15:23:29.074Z,1.40
2022-10-08T15:25:58.107Z,1.35
2022-10-08T15:28:27.768Z,1.58
2022-10-08T15:31:04.954Z,1.30
2022-10-08T15:33:32.788Z,1.50
2022-10-08T15:36:00.523Z,1.60
2022-10-08T15:38:28.273Z,1.73
2022-10-08T15:41:02.717Z,1.30
2022-10-08T15:43:33.907Z,1.90
2022-10-08T15:46:10.475Z,1.75
2022-10-08T15:48:38.590Z,1.23
2022-10-08T15:51:07.241Z,1.10
2022-10-08T15:53:35.438Z,1.23
2022-10-08T15:56:03.222Z,1.42
2022-10-08T15:58:49.986Z,1.45
2022-10-08T16:01:21.979Z,1.13
2022-10-08T16:03:50.909Z,1.58
2022-10-08T16:06:20.329Z,1.73
2022-10-08T16:08:48.402Z,1.45
2022-10-08T16:11:17.982Z,1.40
2022-10-08T16:13:47.599Z,1.48
2022-10-08T16:16:17.012Z,1.65
2022-10-08T16:18:46.923Z,1.15
2022-10-08T16:21:15.110Z,1.65
2022-10-08T16:23:42.816Z,2.08
2022-10-08T16:26:13.373Z,1.50
2022-10-08T16:28:42.159Z,1.35
2022-10-08T16:31:11.301Z,1.63
2022-10-08T16:33:39.243Z,1.33
2022-10-08T16:36:09.873Z,1.85
2022-10-08T16:38:39.712Z,1.63
2022-10-08T16:41:12.866Z,1.90
2022-10-08T16:43:40.720Z,1.77
2022-10-08T16:46:15.347Z,1.88
2022-10-08T16:48:43.498Z,1.95
2022-10-08T16:51:12.901Z,1.83
2022-10-08T16:53:40.666Z,1.83
2022-10-08T16:56:08.405Z,1.55
2022-10-08T16:58:36.180Z,1.73
2022-10-08T17:01:08.238Z,1.55
2022-10-08T17:03:36.540Z,1.80
2022-10-08T17:06:04.785Z,1.70
2022-10-08T17:08:33.885Z,1.90
2022-10-08T17:11:04.775Z,1.90
2022-10-08T17:13:32.917Z,2.03
2022-10-08T17:16:01.561Z,1.80
2022-10-08T17:18:29.975Z,1.58
2022-10-08T17:20:58.453Z,1.50
2022-10-08T17:23:27.624Z,2.03
2022-10-08T17:25:58.191Z,2.10
2022-10-08T17:28:28.328Z,1.60
2022-10-08T17:30:56.180Z,2.05
2022-10-08T17:33:24.071Z,2.75
2022-10-08T17:36:00.542Z,1.95
2022-10-08T17:38:28.517Z,2.38
2022-10-08T17:40:57.641Z,2.65
2022-10-08T17:43:26.078Z,2.83
2022-10-08T17:45:54.229Z,2.50
2022-10-08T17:48:22.025Z,4.38
2022-10-08T17:50:49.778Z,3.92
2022-10-08T17:53:17.558Z,3.38
2022-10-08T17:55:45.336Z,3.58
2022-10-08T17:58:14.644Z,3.28
2022-10-08T18:00:42.487Z,3.35
2022-10-08T18:03:11.503Z,3.85
2022-10-08T18:05:39.324Z,3.30
2022-10-08T18:08:07.108Z,3.40
2022-10-08T18:10:38.217Z,3.38
2022-10-08T18:13:05.910Z,2.42
2022-10-08T18:15:37.471Z,3.20
2022-10-08T18:18:05.298Z,2.17
2022-10-08T18:20:33.060Z,2.75
2022-10-08T18:23:00.819Z,2.40
2022-10-08T18:25:29.474Z,2.63
2022-10-08T18:27:57.512Z,2.53
2022-10-08T18:30:25.282Z,3.40
2022-10-08T18:32:54.471Z,3.17
2022-10-08T18:35:22.226Z,3.88
2022-10-08T18:37:50.009Z,4.40
2022-10-08T18:40:17.901Z,4.35
2022-10-08T18:42:46.132Z,4.55
2022-10-08T18:45:14.185Z,4.70
2022-10-08T18:47:41.917Z,6.15
2022-10-08T18:50:11.373Z,6.07
2022-10-08T18:52:39.111Z,6.97
2022-10-08T18:55:07.405Z,7.85
2022-10-08T18:57:35.286Z,7.38
2022-10-08T19:00:03.146Z,6.72
2022-10-08T19:02:31.058Z,6.50
2022-10-08T19:04:58.902Z,6.22
2022-10-08T19:07:27.991Z,6.70
2022-10-08T19:09:56.563Z,4.97
2022-10-08T19:12:24.254Z,5.40
2022-10-08T19:14:52.083Z,4.97
2022-10-08T19:17:19.820Z,4.57
2022-10-08T19:19:47.622Z,5.93
2022-10-08T19:22:15.465Z,5.60
2022-10-08T19:24:44.668Z,5.03
2022-10-08T19:27:12.382Z,4.80
2022-10-08T19:29:40.334Z,5.75
2022-10-08T19:32:08.348Z,5.20
2022-10-08T19:34:36.364Z,5.07
2022-10-08T19:37:04.060Z,4.87
2022-10-08T19:39:33.543Z,4.80
2022-10-08T19:42:02.643Z,5.30
2022-10-08T19:44:30.308Z,5.57
2022-10-08T19:46:58.033Z,5.50
2022-10-08T19:49:25.713Z,4.57
2022-10-08T19:51:54.133Z,5.30
2022-10-08T19:54:21.827Z,6.13
2022-10-08T19:56:49.726Z,6.67
2022-10-08T19:59:19.127Z,7.10
2022-10-08T20:01:47.022Z,8.53
2022-10-08T20:04:16.694Z,9.17
2022-10-08T20:06:44.788Z,9.60
2022-10-08T20:09:14.260Z,9.93
2022-10-08T20:11:43.245Z,8.90
2022-10-08T20:14:11.608Z,8.97
2022-10-08T20:16:42.537Z,9.00
2022-10-08T20:19:16.584Z,10.07
2022-10-08T20:21:44.486Z,10.13
2022-10-08T20:24:12.737Z,10.77
2022-10-08T20:26:42.158Z,11.43
2022-10-08T20:29:10.972Z,9.73
2022-10-08T20:31:41.281Z,9.40
2022-10-08T20:34:11.685Z,9.70
2022-10-08T20:36:39.422Z,9.43
2022-10-08T20:39:07.504Z,8.37
2022-10-08T20:41:35.291Z,10.80
2022-10-08T20:44:04.358Z,14.50
2022-10-08T20:46:32.932Z,15.27
2022-10-08T20:49:02.104Z,14.70
2022-10-08T20:51:30.764Z,12.03
2022-10-08T20:54:00.202Z,12.20
2022-10-08T20:56:28.942Z,11.83
2022-10-08T20:58:57.356Z,12.93
2022-10-08T21:01:30.183Z,12.10
2022-10-08T21:03:58.251Z,13.10
2022-10-08T21:06:28.781Z,14.30
2022-10-08T21:08:58.688Z,13.73
2022-10-08T21:11:28.801Z,15.63
2022-10-08T21:13:57.363Z,16.13
2022-10-08T21:16:26.975Z,16.57
2022-10-08T21:18:56.941Z,18.17
2022-10-08T21:21:27.732Z,22.57
2022-10-08T21:23:55.984Z,19.20
2022-10-08T21:26:25.569Z,16.43
2022-10-08T21:28:55.706Z,14.33
2022-10-08T21:31:24.034Z,15.73
2022-10-08T21:33:52.976Z,17.23
2022-10-08T21:36:22.329Z,15.53
2022-10-08T21:38:51.640Z,17.13
2022-10-08T21:41:20.973Z,14.30
2022-10-08T21:43:50.081Z,13.27
2022-10-08T21:46:19.661Z,14.27
2022-10-08T21:48:47.585Z,14.00
2022-10-08T21:51:17.461Z,15.13
2022-10-08T21:53:46.719Z,15.53
2022-10-08T21:56:17.347Z,15.07
2022-10-08T21:58:46.513Z,16.20
2022-10-08T22:01:22.955Z,13.73
2022-10-08T22:03:53.951Z,16.47
2022-10-08T22:06:21.861Z,14.87
2022-10-08T22:08:49.782Z,15.40
2022-10-08T22:11:19.211Z,15.00
2022-10-08T22:13:47.060Z,14.77
2022-10-08T22:16:17.313Z,13.70
2022-10-08T22:18:45.442Z,11.93
2022-10-08T22:21:14.840Z,10.00
2022-10-08T22:23:42.713Z,10.33
2022-10-08T22:26:13.273Z,11.30
2022-10-08T22:28:42.676Z,11.07
2022-10-08T22:31:12.407Z,11.40
2022-10-08T22:33:40.394Z,11.73
2022-10-08T22:36:09.894Z,11.40
2022-10-08T22:38:39.258Z,11.63
2022-10-08T22:41:08.513Z,10.80
2022-10-08T22:43:36.765Z,11.73
2022-10-08T22:46:07.365Z,11.83
2022-10-08T22:48:35.247Z,11.40
2022-10-08T22:51:03.306Z,10.43
2022-10-08T22:53:31.470Z,10.80
2022-10-08T22:55:59.400Z,10.27
2022-10-08T22:58:27.288Z,9.57
2022-10-08T23:00:59.303Z,9.03
2022-10-08T23:03:28.950Z,9.77
2022-10-08T23:06:04.707Z,7.90
2022-10-08T23:08:32.891Z,8.83
2022-10-08T23:11:00.642Z,9.07
2022-10-08T23:13:29.505Z,8.63
2022-10-08T23:16:02.628Z,8.50
2022-10-08T23:18:32.541Z,8.70
2022-10-08T23:21:02.985Z,9.97
2022-10-08T23:23:31.078Z,8.83
2022-10-08T23:26:00.372Z,8.70
2022-10-08T23:28:29.048Z,9.00
2022-10-08T23:30:56.848Z,8.77
2022-10-08T23:33:24.621Z,8.93
2022-10-08T23:35:56.888Z,8.90
2022-10-08T23:38:24.806Z,7.73
2022-10-08T23:40:52.630Z,7.87
2022-10-08T23:43:20.398Z,7.20
2022-10-08T23:45:48.154Z,8.30
2022-10-08T23:48:15.889Z,7.60
2022-10-08T23:50:43.604Z,7.70
2022-10-08T23:53:12.716Z,7.37
2022-10-08T23:55:40.472Z,8.33
2022-10-08T23:58:08.225Z,8.77
